Time,TemperatureF,DewpointF,PressureIn,WindDirection,WindDirectionDegrees,WindSpeedMPH,WindSpeedGustMPH,Humidity,HourlyPrecipIn,Conditions,Clouds,dailyrainin,SoftwareType,DateUTC
2013-02-20 00:02:00,56.0,51.0,30.11,SW,235,2.0,3.0,82,-99.99,,,-99.99,,2013-02-20 05:02:00,
2013-02-20 00:12:00,56.0,51.0,30.11,SW,235,2.0,3.0,82,-99.99,,,-99.99,,2013-02-20 05:12:00,
2013-02-20 00:22:00,56.0,51.0,30.11,SW,235,2.0,3.0,82,-99.99,,,-99.99,,2013-02-20 05:22:00,
2013-02-20 00:32:00,55.0,50.0,30.11,South,188,4.0,6.0,82,-99.99,,,-99.99,,2013-02-20 05:32:00,
2013-02-20 00:43:00,54.0,50.0,30.11,South,171,4.0,5.0,86,-99.99,,,-99.99,,2013-02-20 05:43:00,
2013-02-20 00:52:00,56.0,52.0,30.11,South,180,2.0,3.0,86,-99.99,,,-99.99,,2013-02-20 05:52:00,
2013-02-20 01:02:00,55.0,50.0,30.10,South,169,3.0,3.0,86,-99.99,,,-99.99,,2013-02-20 06:02:00,
2013-02-20 01:11:00,55.0,50.0,30.10,South,169,3.0,3.0,86,-99.99,,,-99.99,,2013-02-20 06:11:00,
2013-02-20 01:22:00,55.0,51.0,30.10,South,174,3.0,4.0,87,-99.99,,,-99.99,,2013-02-20 06:22:00,
2013-02-20 01:32:00,54.0,51.0,30.11,WSW,244,2.0,3.0,88,-99.99,,,-99.99,,2013-02-20 06:32:00,
2013-02-20 01:42:00,54.0,51.0,30.11,WSW,244,2.0,3.0,88,-99.99,,,-99.99,,2013-02-20 06:42:00,
2013-02-20 01:52:00,55.0,52.0,30.11,WSW,244,2.0,2.0,89,-99.99,,,-99.99,,2013-02-20 06:52:00,
2013-02-20 02:02:00,54.0,50.0,30.11,SW,235,1.0,2.0,89,-99.99,,,-99.99,,2013-02-20 07:02:00,
2013-02-20 02:11:00,54.0,50.0,30.11,SW,235,1.0,2.0,89,-99.99,,,-99.99,,2013-02-20 07:11:00,
2013-02-20 02:21:00,53.0,50.0,30.11,SW,215,2.0,3.0,90,-99.99,,,-99.99,,2013-02-20 07:21:00,
2013-02-20 02:32:00,53.0,51.0,30.10,SW,232,2.0,3.0,90,-99.99,,,-99.99,,2013-02-20 07:32:00,
2013-02-20 02:42:00,53.0,51.0,30.10,SW,232,2.0,3.0,90,-99.99,,,-99.99,,2013-02-20 07:42:00,
2013-02-20 02:52:00,53.0,50.0,30.10,WSW,252,1.0,2.0,91,-99.99,,,-99.99,,2013-02-20 07:52:00,
2013-02-20 03:05:00,53.0,50.0,30.10,WSW,252,1.0,2.0,91,-99.99,,,-99.99,,2013-02-20 08:05:00,
2013-02-20 03:11:00,53.0,50.0,30.10,SW,218,2.0,2.0,92,-99.99,,,-99.99,,2013-02-20 08:11:00,
2013-02-20 03:22:00,53.0,50.0,30.10,SW,218,2.0,2.0,92,-99.99,,,-99.99,,2013-02-20 08:22:00,
2013-02-20 03:31:00,53.0,50.0,30.10,SW,218,2.0,2.0,92,-99.99,,,-99.99,,2013-02-20 08:31:00,
2013-02-20 03:42:00,53.0,51.0,30.09,SSW,211,1.0,2.0,92,-99.99,,,-99.99,,2013-02-20 08:42:00,
2013-02-20 03:52:00,53.0,51.0,30.09,SW,219,2.0,2.0,92,-99.99,,,-99.99,,2013-02-20 08:52:00,
2013-02-20 04:02:00,54.0,52.0,30.09,SW,234,1.0,2.0,92,-99.99,,,-99.99,,2013-02-20 09:02:00,
2013-02-20 04:11:00,54.0,52.0,30.09,SW,234,1.0,2.0,92,-99.99,,,-99.99,,2013-02-20 09:11:00,
2013-02-20 04:21:00,54.0,52.0,30.09,SSW,207,1.0,2.0,92,-99.99,,,-99.99,,2013-02-20 09:21:00,
2013-02-20 04:32:00,53.0,51.0,30.09,SSW,206,1.0,1.0,92,-99.99,,,-99.99,,2013-02-20 09:32:00,
2013-02-20 04:42:00,53.0,51.0,30.09,West,264,2.0,3.0,93,-99.99,,,-99.99,,2013-02-20 09:42:00,
2013-02-20 04:52:00,54.0,52.0,30.08,West,264,2.0,3.0,93,-99.99,,,-99.99,,2013-02-20 09:52:00,
2013-02-20 05:01:00,54.0,52.0,30.08,West,264,2.0,3.0,93,-99.99,,,-99.99,,2013-02-20 10:01:00,
2013-02-20 05:12:00,53.0,51.0,30.08,WNW,297,2.0,3.0,93,-99.99,,,-99.99,,2013-02-20 10:12:00,
2013-02-20 05:22:00,53.0,51.0,30.08,WNW,297,2.0,3.0,93,-99.99,,,-99.99,,2013-02-20 10:22:00,
2013-02-20 05:32:00,54.0,52.0,30.08,NW,310,3.0,12.0,93,-99.99,,,-99.99,,2013-02-20 10:32:00,
2013-02-20 05:42:00,55.0,54.0,30.09,NW,326,6.0,10.0,94,-99.99,,,-99.99,,2013-02-20 10:42:00,
2013-02-20 05:52:00,56.0,54.0,30.10,NW,323,5.0,6.0,94,-99.99,,,-99.99,,2013-02-20 10:52:00,
2013-02-20 06:02:00,56.0,54.0,30.10,NW,323,5.0,6.0,94,-99.99,,,-99.99,,2013-02-20 11:02:00,
2013-02-20 06:11:00,57.0,55.0,30.10,NNW,339,4.0,6.0,94,-99.99,,,-99.99,,2013-02-20 11:11:00,
2013-02-20 06:21:00,57.0,55.0,30.10,NNW,339,4.0,6.0,94,-99.99,,,-99.99,,2013-02-20 11:21:00,
2013-02-20 06:32:00,57.0,56.0,30.10,NW,312,3.0,5.0,94,-99.99,,,-99.99,,2013-02-20 11:32:00,
2013-02-20 06:42:00,58.0,56.0,30.11,NW,307,2.0,3.0,94,-99.99,,,-99.99,,2013-02-20 11:42:00,
2013-02-20 06:52:00,58.0,56.0,30.11,NW,307,2.0,3.0,94,-99.99,,,-99.99,,2013-02-20 11:52:00,
2013-02-20 07:02:00,58.0,56.0,30.11,NW,314,3.0,4.0,94,-99.99,,,-99.99,,2013-02-20 12:02:00,
2013-02-20 07:12:00,58.0,56.0,30.11,NW,314,3.0,4.0,94,-99.99,,,-99.99,,2013-02-20 12:12:00,
2013-02-20 07:22:00,58.0,56.0,30.12,NW,321,3.0,4.0,94,-99.99,,,-99.99,,2013-02-20 12:22:00,
2013-02-20 07:32:00,58.0,56.0,30.12,NNW,331,2.0,4.0,94,-99.99,,,-99.99,,2013-02-20 12:32:00,
2013-02-20 07:42:00,57.0,56.0,30.13,SSE,151,1.0,2.0,94,-99.99,,,-99.99,,2013-02-20 12:42:00,
2013-02-20 07:53:00,57.0,56.0,30.13,SSE,151,1.0,2.0,94,-99.99,,,-99.99,,2013-02-20 12:53:00,
2013-02-20 08:01:00,57.0,56.0,30.13,SSW,212,0.0,1.0,94,-99.99,,,-99.99,,2013-02-20 13:01:00,
2013-02-20 08:12:00,57.0,56.0,30.13,SSW,212,0.0,1.0,94,-99.99,,,-99.99,,2013-02-20 13:12:00,
2013-02-20 08:22:00,58.0,57.0,30.13,West,264,1.0,3.0,94,-99.99,,,-99.99,,2013-02-20 13:22:00,
2013-02-20 08:32:00,59.0,57.0,30.13,SE,133,2.0,4.0,94,-99.99,,,-99.99,,2013-02-20 13:32:00,
2013-02-20 08:42:00,60.0,59.0,30.14,NE,50,3.0,5.0,94,-99.99,,,-99.99,,2013-02-20 13:42:00,
2013-02-20 08:52:00,60.0,59.0,30.14,NE,50,3.0,5.0,94,-99.99,,,-99.99,,2013-02-20 13:52:00,
2013-02-20 09:01:00,61.0,59.0,30.14,NE,36,4.0,5.0,94,-99.99,,,-99.99,,2013-02-20 14:01:00,
2013-02-20 09:11:00,61.0,59.0,30.14,NE,36,4.0,5.0,94,-99.99,,,-99.99,,2013-02-20 14:11:00,
2013-02-20 09:22:00,62.0,60.0,30.15,NE,41,5.0,8.0,94,-99.99,,,-99.99,,2013-02-20 14:22:00,
2013-02-20 09:32:00,62.0,60.0,30.15,NE,41,5.0,8.0,94,-99.99,,,-99.99,,2013-02-20 14:32:00,
2013-02-20 09:42:00,63.0,61.0,30.15,NE,43,7.0,10.0,92,-99.99,,,-99.99,,2013-02-20 14:42:00,
2013-02-20 09:52:00,65.0,61.0,30.15,NE,46,7.0,12.0,86,-99.99,,,-99.99,,2013-02-20 14:52:00,
2013-02-20 10:02:00,65.0,59.0,30.15,NE,50,7.0,10.0,82,-99.99,,,-99.99,,2013-02-20 15:02:00,
2013-02-20 10:12:00,65.0,59.0,30.15,NE,50,7.0,10.0,82,-99.99,,,-99.99,,2013-02-20 15:12:00,
2013-02-20 10:22:00,66.0,60.0,30.15,East,79,6.0,8.0,80,-99.99,,,-99.99,,2013-02-20 15:22:00,
2013-02-20 10:32:00,66.0,59.0,30.15,East,81,5.0,7.0,78,-99.99,,,-99.99,,2013-02-20 15:32:00,
2013-02-20 10:42:00,67.0,59.0,30.15,NE,46,5.0,8.0,75,-99.99,,,-99.99,,2013-02-20 15:42:00,
2013-02-20 10:52:00,68.0,59.0,30.15,East,85,5.0,8.0,73,-99.99,,,-99.99,,2013-02-20 15:52:00,
2013-02-20 11:01:00,68.0,59.0,30.15,East,85,5.0,8.0,73,-99.99,,,-99.99,,2013-02-20 16:01:00,
2013-02-20 11:12:00,70.0,60.0,30.15,ESE,105,6.0,11.0,69,-99.99,,,-99.99,,2013-02-20 16:12:00,
2013-02-20 11:22:00,70.0,60.0,30.15,ESE,105,6.0,11.0,69,-99.99,,,-99.99,,2013-02-20 16:22:00,
2013-02-20 11:32:00,70.0,59.0,30.15,ENE,78,6.0,11.0,67,-99.99,,,-99.99,,2013-02-20 16:32:00,
2013-02-20 11:42:00,70.0,59.0,30.15,ENE,78,6.0,11.0,67,-99.99,,,-99.99,,2013-02-20 16:42:00,
2013-02-20 11:52:00,72.0,59.0,30.15,ESE,106,7.0,11.0,64,-99.99,,,-99.99,,2013-02-20 16:52:00,
2013-02-20 12:01:00,71.0,59.0,30.14,SSE,166,5.0,10.0,64,-99.99,,,-99.99,,2013-02-20 17:01:00,
2013-02-20 12:11:00,71.0,59.0,30.14,SSE,166,5.0,10.0,64,-99.99,,,-99.99,,2013-02-20 17:11:00,
2013-02-20 12:21:00,72.0,59.0,30.14,SE,130,5.0,10.0,62,-99.99,,,-99.99,,2013-02-20 17:21:00,
2013-02-20 12:32:00,72.0,59.0,30.14,SE,130,5.0,10.0,62,-99.99,,,-99.99,,2013-02-20 17:32:00,
2013-02-20 12:42:00,73.0,59.0,30.13,South,189,4.0,8.0,60,-99.99,,,-99.99,,2013-02-20 17:42:00,
2013-02-20 12:52:00,74.0,59.0,30.12,SE,143,4.0,8.0,57,-99.99,,,-99.99,,2013-02-20 17:52:00,
2013-02-20 13:02:00,75.0,59.0,30.11,SE,125,4.0,10.0,56,-99.99,,,-99.99,,2013-02-20 18:02:00,
2013-02-20 13:11:00,75.0,59.0,30.11,SE,125,4.0,10.0,56,-99.99,,,-99.99,,2013-02-20 18:11:00,
2013-02-20 13:22:00,76.0,59.0,30.10,ESE,112,5.0,8.0,54,-99.99,,,-99.99,,2013-02-20 18:22:00,
2013-02-20 13:32:00,77.0,59.0,30.09,SE,145,4.0,9.0,53,-99.99,,,-99.99,,2013-02-20 18:32:00,
2013-02-20 13:42:00,77.0,58.0,30.09,SW,229,6.0,9.0,52,-99.99,,,-99.99,,2013-02-20 18:42:00,
2013-02-20 13:52:00,77.0,58.0,30.09,SW,229,6.0,9.0,52,-99.99,,,-99.99,,2013-02-20 18:52:00,
2013-02-20 14:01:00,77.0,57.0,30.08,SW,217,6.0,9.0,50,-99.99,,,-99.99,,2013-02-20 19:01:00,
2013-02-20 14:11:00,77.0,57.0,30.08,SW,217,6.0,9.0,50,-99.99,,,-99.99,,2013-02-20 19:11:00,
2013-02-20 14:21:00,77.0,57.0,30.06,SSW,211,5.0,8.0,49,-99.99,,,-99.99,,2013-02-20 19:21:00,
2013-02-20 14:31:00,78.0,57.0,30.06,SW,227,3.0,7.0,48,-99.99,,,-99.99,,2013-02-20 19:31:00,
2013-02-20 14:41:00,79.0,58.0,30.06,SE,137,3.0,8.0,48,-99.99,,,-99.99,,2013-02-20 19:41:00,
2013-02-20 14:52:00,79.0,58.0,30.06,SE,137,3.0,8.0,48,-99.99,,,-99.99,,2013-02-20 19:52:00,
2013-02-20 15:01:00,78.0,58.0,30.05,SSW,213,5.0,9.0,49,-99.99,,,-99.99,,2013-02-20 20:01:00,
2013-02-20 15:11:00,78.0,58.0,30.05,SSW,213,5.0,9.0,49,-99.99,,,-99.99,,2013-02-20 20:11:00,
2013-02-20 15:21:00,79.0,57.0,30.05,WSW,241,5.0,10.0,47,-99.99,,,-99.99,,2013-02-20 20:21:00,
2013-02-20 15:31:00,79.0,57.0,30.05,WSW,241,5.0,10.0,47,-99.99,,,-99.99,,2013-02-20 20:31:00,
2013-02-20 15:41:00,77.0,57.0,30.05,SW,219,5.0,7.0,49,-99.99,,,-99.99,,2013-02-20 20:41:00,
2013-02-20 15:52:00,77.0,57.0,30.05,SW,219,5.0,7.0,49,-99.99,,,-99.99,,2013-02-20 20:52:00,
2013-02-20 16:01:00,77.0,58.0,30.05,East,92,2.0,5.0,50,-99.99,,,-99.99,,2013-02-20 21:01:00,
2013-02-20 16:11:00,77.0,58.0,30.05,East,92,2.0,5.0,50,-99.99,,,-99.99,,2013-02-20 21:11:00,
2013-02-20 16:21:00,77.0,58.0,30.04,South,190,2.0,3.0,52,-99.99,,,-99.99,,2013-02-20 21:21:00,
2013-02-20 16:32:00,77.0,57.0,30.04,SSW,194,3.0,6.0,49,-99.99,,,-99.99,,2013-02-20 21:32:00,
2013-02-20 16:42:00,76.0,57.0,30.04,South,170,4.0,5.0,51,-99.99,,,-99.99,,2013-02-20 21:42:00,
2013-02-20 16:52:00,76.0,57.0,30.04,South,170,4.0,5.0,51,-99.99,,,-99.99,,2013-02-20 21:52:00,
2013-02-20 17:02:00,76.0,57.0,30.04,South,185,2.0,5.0,51,-99.99,,,-99.99,,2013-02-20 22:02:00,
2013-02-20 17:11:00,76.0,57.0,30.04,South,185,2.0,5.0,51,-99.99,,,-99.99,,2013-02-20 22:11:00,
2013-02-20 17:21:00,76.0,57.0,30.05,SE,130,1.0,3.0,51,-99.99,,,-99.99,,2013-02-20 22:21:00,
2013-02-20 17:31:00,76.0,58.0,30.05,ENE,57,3.0,5.0,53,-99.99,,,-99.99,,2013-02-20 22:31:00,
2013-02-20 17:43:00,75.0,59.0,30.06,NNE,30,2.0,4.0,56,-99.99,,,-99.99,,2013-02-20 22:43:00,
2013-02-20 17:52:00,75.0,59.0,30.06,NNE,30,2.0,4.0,56,-99.99,,,-99.99,,2013-02-20 22:52:00,
2013-02-20 18:01:00,73.0,59.0,30.07,ENE,57,8.0,13.0,60,-99.99,,,-99.99,,2013-02-20 23:01:00,
2013-02-20 18:12:00,73.0,59.0,30.07,ENE,57,8.0,13.0,60,-99.99,,,-99.99,,2013-02-20 23:12:00,
2013-02-20 18:22:00,71.0,58.0,30.08,ENE,75,8.0,11.0,64,-99.99,,,-99.99,,2013-02-20 23:22:00,
2013-02-20 18:32:00,71.0,58.0,30.08,ENE,75,8.0,11.0,64,-99.99,,,-99.99,,2013-02-20 23:32:00,
2013-02-20 18:42:00,70.0,58.0,30.08,ENE,71,7.0,13.0,65,-99.99,,,-99.99,,2013-02-20 23:42:00,
2013-02-20 18:53:00,68.0,58.0,30.07,East,89,7.0,10.0,68,-99.99,,,-99.99,,2013-02-20 23:53:00,
2013-02-20 19:03:00,68.0,58.0,30.07,East,89,7.0,10.0,68,-99.99,,,-99.99,,2013-02-21 00:03:00,
2013-02-20 19:11:00,68.0,57.0,30.08,ENE,72,7.0,10.0,69,-99.99,,,-99.99,,2013-02-21 00:11:00,
2013-02-20 19:22:00,68.0,57.0,30.08,ENE,72,7.0,10.0,69,-99.99,,,-99.99,,2013-02-21 00:22:00,
2013-02-20 19:32:00,67.0,57.0,30.08,ENE,75,6.0,9.0,69,-99.99,,,-99.99,,2013-02-21 00:32:00,
2013-02-20 19:42:00,67.0,57.0,30.08,ENE,77,7.0,11.0,69,-99.99,,,-99.99,,2013-02-21 00:42:00,
2013-02-20 19:52:00,67.0,57.0,30.08,ENE,77,7.0,11.0,69,-99.99,,,-99.99,,2013-02-21 00:52:00,
2013-02-20 20:01:00,66.0,57.0,30.08,ENE,77,7.0,11.0,69,-99.99,,,-99.99,,2013-02-21 01:01:00,
2013-02-20 20:11:00,66.0,57.0,30.08,ENE,77,7.0,11.0,69,-99.99,,,-99.99,,2013-02-21 01:11:00,
2013-02-20 20:21:00,66.0,56.0,30.09,ENE,58,5.0,8.0,70,-99.99,,,-99.99,,2013-02-21 01:21:00,
2013-02-20 20:32:00,66.0,56.0,30.10,ENE,60,5.0,8.0,70,-99.99,,,-99.99,,2013-02-21 01:32:00,
2013-02-20 20:42:00,66.0,56.0,30.10,NNE,31,6.0,11.0,70,-99.99,,,-99.99,,2013-02-21 01:42:00,
2013-02-20 20:52:00,66.0,56.0,30.10,NNE,31,6.0,11.0,70,-99.99,,,-99.99,,2013-02-21 01:52:00,
2013-02-20 21:02:00,65.0,55.0,30.11,NNE,28,8.0,12.0,70,-99.99,,,-99.99,,2013-02-21 02:02:00,
2013-02-20 21:11:00,65.0,55.0,30.11,NNE,28,8.0,12.0,70,-99.99,,,-99.99,,2013-02-21 02:11:00,
2013-02-20 21:22:00,64.0,54.0,30.12,NNE,19,8.0,12.0,71,-99.99,,,-99.99,,2013-02-21 02:22:00,
2013-02-20 21:32:00,64.0,54.0,30.12,NNE,19,8.0,12.0,71,-99.99,,,-99.99,,2013-02-21 02:32:00,
2013-02-20 21:42:00,64.0,54.0,30.12,NNE,19,8.0,12.0,71,-99.99,,,-99.99,,2013-02-21 02:42:00,
2013-02-20 22:02:00,62.0,53.0,30.12,NE,45,8.0,12.0,72,-99.99,,,-99.99,,2013-02-21 03:02:00,
2013-02-20 22:12:00,62.0,53.0,30.12,NE,45,8.0,12.0,72,-99.99,,,-99.99,,2013-02-21 03:12:00,
2013-02-20 22:21:00,62.0,53.0,30.13,NE,34,7.0,11.0,73,-99.99,,,-99.99,,2013-02-21 03:21:00,
2013-02-20 22:32:00,62.0,53.0,30.13,NE,34,7.0,11.0,73,-99.99,,,-99.99,,2013-02-21 03:32:00,
2013-02-20 22:42:00,61.0,53.0,30.13,NE,36,6.0,9.0,74,-99.99,,,-99.99,,2013-02-21 03:42:00,
2013-02-20 22:52:00,60.0,53.0,30.13,NE,36,6.0,9.0,75,-99.99,,,-99.99,,2013-02-21 03:52:00,
2013-02-20 23:01:00,60.0,53.0,30.13,NE,47,4.0,8.0,75,-99.99,,,-99.99,,2013-02-21 04:01:00,
2013-02-20 23:11:00,60.0,53.0,30.13,NE,47,4.0,8.0,75,-99.99,,,-99.99,,2013-02-21 04:11:00,
2013-02-20 23:22:00,60.0,53.0,30.13,NE,51,3.0,6.0,75,-99.99,,,-99.99,,2013-02-21 04:22:00,
2013-02-20 23:32:00,60.0,53.0,30.12,NNE,27,5.0,6.0,76,-99.99,,,-99.99,,2013-02-21 04:32:00,
2013-02-20 23:42:00,60.0,53.0,30.12,NNE,27,5.0,6.0,76,-99.99,,,-99.99,,2013-02-21 04:42:00,
2013-02-20 23:52:00,60.0,53.0,30.12,NNE,33,4.0,7.0,75,-99.99,,,-99.99,,2013-02-21 04:52:00,